createdAt,value
2018-06-22T00:01:04.663Z,102591.33
2018-06-22T00:04:07.367Z,102596.22
2018-06-22T00:07:09.416Z,102591.38
2018-06-22T00:10:11.470Z,102597.55
2018-06-22T00:13:13.530Z,102594.00
2018-06-22T00:16:15.572Z,102600.34
2018-06-22T00:19:17.674Z,102596.00
2018-06-22T00:22:19.756Z,102599.06
2018-06-22T00:25:21.770Z,102605.22
2018-06-22T00:28:23.867Z,102602.35
2018-06-22T00:31:26.228Z,102601.72
2018-06-22T00:34:28.326Z,102606.90
2018-06-22T00:37:30.413Z,102607.59
2018-06-22T00:40:32.440Z,102612.96
2018-06-22T00:43:34.515Z,102615.95
2018-06-22T00:46:36.459Z,102608.16
2018-06-22T00:49:38.443Z,102613.89
2018-06-22T00:52:40.545Z,102614.21
2018-06-22T00:55:42.594Z,102617.62
2018-06-22T00:58:44.565Z,102620.28
2018-06-22T01:01:46.624Z,102623.69
2018-06-22T01:04:48.742Z,102618.93
2018-06-22T01:07:50.753Z,102631.32
2018-06-22T01:10:53.965Z,102630.56
2018-06-22T01:13:56.047Z,102633.03
2018-06-22T01:16:58.074Z,102632.54
2018-06-22T01:20:00.195Z,102634.82
2018-06-22T01:23:02.266Z,102632.28
2018-06-22T01:26:04.670Z,102629.91
2018-06-22T01:29:12.334Z,102633.35
2018-06-22T01:32:14.235Z,102640.70
2018-06-22T01:35:16.257Z,102638.41
2018-06-22T01:38:18.305Z,102638.13
2018-06-22T01:41:20.394Z,102642.88
2018-06-22T01:44:22.438Z,102637.11
2018-06-22T01:47:24.731Z,102642.80
2018-06-22T01:50:26.802Z,102639.41
2018-06-22T01:53:28.860Z,102644.09
2018-06-22T01:56:30.952Z,102632.64
2018-06-22T01:59:32.918Z,102637.91
2018-06-22T02:02:35.094Z,102638.59
2018-06-22T02:05:37.153Z,102637.97
2018-06-22T02:08:39.193Z,102641.60
2018-06-22T02:11:41.311Z,102637.44
2018-06-22T02:14:43.539Z,102643.49
2018-06-22T02:17:45.622Z,102644.86
2018-06-22T02:20:47.716Z,102640.86
2018-06-22T02:23:49.895Z,102645.50
2018-06-22T02:26:52.189Z,102644.89
2018-06-22T02:29:55.432Z,102648.21
2018-06-22T02:32:57.494Z,102650.32
2018-06-22T02:35:59.538Z,102646.78
2018-06-22T02:39:01.563Z,102654.26
2018-06-22T02:42:03.632Z,102655.47
2018-06-22T02:45:06.571Z,102651.61
2018-06-22T02:48:08.643Z,102658.70
2018-06-22T02:51:10.756Z,102664.83
2018-06-22T02:54:12.805Z,102667.34
2018-06-22T02:57:14.974Z,102657.57
2018-06-22T03:00:17.069Z,102663.93
2018-06-22T03:03:19.288Z,102667.96
2018-06-22T03:06:21.403Z,102672.56
2018-06-22T03:09:24.572Z,102675.65
2018-06-22T03:12:26.643Z,102681.57
2018-06-22T03:15:28.630Z,102684.03
2018-06-22T03:18:30.679Z,102687.68
2018-06-22T03:21:32.829Z,102692.35
2018-06-22T03:24:34.803Z,102691.14
2018-06-22T03:27:36.882Z,102692.37
2018-06-22T03:30:38.974Z,102690.26
2018-06-22T03:33:41.040Z,102692.99
2018-06-22T03:36:43.101Z,102699.91
2018-06-22T03:39:45.176Z,102697.76
2018-06-22T03:42:47.208Z,102702.12
2018-06-22T03:45:49.330Z,102701.36
2018-06-22T03:48:51.351Z,102699.76
2018-06-22T03:51:53.456Z,102698.32
2018-06-22T03:54:55.519Z,102700.67
2018-06-22T03:57:57.518Z,102700.67
2018-06-22T04:01:01.074Z,102706.40
2018-06-22T04:04:03.119Z,102701.07
2018-06-22T04:07:05.180Z,102701.61
2018-06-22T04:10:07.280Z,102702.78
2018-06-22T04:13:09.336Z,102703.33
2018-06-22T04:16:11.421Z,102709.55
2018-06-22T04:19:13.515Z,102702.36
2018-06-22T04:22:15.555Z,102702.86
2018-06-22T04:25:18.908Z,102709.50
2018-06-22T04:28:21.036Z,102711.59
2018-06-22T04:31:23.088Z,102709.52
2018-06-22T04:34:26.099Z,102709.28
2018-06-22T04:37:28.139Z,102706.41
2018-06-22T04:40:30.845Z,102710.26
2018-06-22T04:43:33.100Z,102714.73
2018-06-22T04:46:35.448Z,102719.08
2018-06-22T04:49:37.407Z,102718.04
2018-06-22T04:52:39.521Z,102707.78
2018-06-22T04:55:41.598Z,102700.64
2018-06-22T04:58:43.666Z,102703.26
2018-06-22T05:01:51.677Z,102702.00
2018-06-22T05:04:53.748Z,102695.79
2018-06-22T05:07:55.812Z,102694.56
2018-06-22T05:10:57.982Z,102692.76
2018-06-22T05:14:01.227Z,102687.91
2018-06-22T05:17:03.275Z,102686.57
2018-06-22T05:20:05.432Z,102687.49
2018-06-22T05:23:07.756Z,102690.04
2018-06-22T05:26:09.701Z,102691.52
2018-06-22T05:29:11.832Z,102692.69
2018-06-22T05:32:13.882Z,102689.20
2018-06-22T05:35:15.862Z,102687.44
2018-06-22T05:38:18.104Z,102688.24
2018-06-22T05:41:20.035Z,102684.35
2018-06-22T05:44:22.265Z,102692.49
2018-06-22T05:47:24.402Z,102695.63
2018-06-22T05:50:26.558Z,102693.81
2018-06-22T05:53:28.856Z,102700.14
2018-06-22T05:56:31.046Z,102703.95
2018-06-22T05:59:33.143Z,102702.14
2018-06-22T06:02:35.184Z,102703.19
2018-06-22T06:05:37.247Z,102704.96
2018-06-22T06:08:39.437Z,102707.81
2018-06-22T06:11:41.472Z,102703.96
2018-06-22T06:14:43.612Z,102704.04
2018-06-22T06:17:46.721Z,102708.78
2018-06-22T06:20:48.837Z,102703.46
2018-06-22T06:23:50.884Z,102709.59
2018-06-22T06:26:52.932Z,102709.99
2018-06-22T06:29:54.935Z,102708.35
2018-06-22T06:32:57.022Z,102707.16
2018-06-22T06:36:00.356Z,102707.63
2018-06-22T06:39:02.662Z,102704.44
2018-06-22T06:42:08.787Z,102707.92
2018-06-22T06:45:11.881Z,102698.33
2018-06-22T06:48:13.912Z,102694.11
2018-06-22T06:51:16.149Z,102693.24
2018-06-22T06:54:18.207Z,102701.01
2018-06-22T06:57:20.208Z,102698.54
2018-06-22T07:00:22.303Z,102695.14
2018-06-22T07:03:24.363Z,102696.34
2018-06-22T07:06:26.409Z,102699.91
2018-06-22T07:09:28.505Z,102698.54
2018-06-22T07:12:30.740Z,102693.40
2018-06-22T07:15:38.936Z,102691.55
2018-06-22T07:18:41.067Z,102693.37
2018-06-22T07:21:43.099Z,102690.98
2018-06-22T07:24:45.173Z,102698.95
2018-06-22T07:27:47.259Z,102701.63
2018-06-22T07:30:49.448Z,102707.26
2018-06-22T07:33:51.504Z,102720.39
2018-06-22T07:36:57.720Z,102721.90
2018-06-22T07:40:00.836Z,102714.41
2018-06-22T07:43:03.111Z,102695.44
2018-06-22T07:46:05.203Z,102706.10
2018-06-22T07:49:07.296Z,102711.08
2018-06-22T07:52:09.457Z,102704.98
2018-06-22T07:55:11.580Z,102706.60
2018-06-22T07:58:13.492Z,102711.73
2018-06-22T08:01:15.544Z,102710.31
2018-06-22T08:04:17.632Z,102711.43
2018-06-22T08:07:20.065Z,102704.62
2018-06-22T08:10:22.156Z,102708.71
2018-06-22T08:13:24.238Z,102706.64
2018-06-22T08:16:26.446Z,102708.20
2018-06-22T08:19:28.514Z,102706.96
2018-06-22T08:22:31.324Z,102710.19
2018-06-22T08:25:33.268Z,102717.77
2018-06-22T08:28:35.423Z,102711.88
2018-06-22T08:31:37.510Z,102705.07
2018-06-22T08:34:39.747Z,102700.44
2018-06-22T08:37:41.719Z,102696.17
2018-06-22T08:40:43.811Z,102689.47
2018-06-22T08:43:45.952Z,102691.91
2018-06-22T08:46:48.016Z,102688.98
2018-06-22T08:49:50.111Z,102698.22
2018-06-22T08:52:52.248Z,102695.95
2018-06-22T08:55:54.319Z,102689.30
2018-06-22T08:58:56.252Z,102700.22
2018-06-22T09:01:58.467Z,102694.32
2018-06-22T09:05:01.935Z,102682.49
2018-06-22T09:08:04.417Z,102685.51
2018-06-22T09:11:06.550Z,102692.52
2018-06-22T09:14:08.560Z,102691.31
2018-06-22T09:17:10.708Z,102704.38
2018-06-22T09:20:13.852Z,102704.14
2018-06-22T09:23:15.852Z,102702.38
2018-06-22T09:26:17.811Z,102705.74
2018-06-22T09:29:19.907Z,102705.90
2018-06-22T09:32:21.998Z,102712.33
2018-06-22T09:35:23.968Z,102714.57
2018-06-22T09:38:26.005Z,102715.83
2018-06-22T09:41:27.986Z,102706.66
2018-06-22T09:44:36.822Z,102708.30
2018-06-22T09:47:40.133Z,102706.35
2018-06-22T09:50:42.823Z,102700.13
2018-06-22T09:53:45.365Z,102692.99
2018-06-22T09:56:47.330Z,102684.95
2018-06-22T09:59:51.377Z,102675.78
2018-06-22T10:02:53.520Z,102680.85
2018-06-22T10:05:55.645Z,102684.79
2018-06-22T10:09:00.947Z,102679.04
2018-06-22T10:12:02.933Z,102685.79
2018-06-22T10:15:05.348Z,102679.70
2018-06-22T10:18:07.424Z,102693.99
2018-06-22T10:21:09.531Z,102683.42
2018-06-22T10:24:11.632Z,102680.25
2018-06-22T10:27:13.795Z,102687.70
2018-06-22T10:30:15.822Z,102680.92
2018-06-22T10:33:19.766Z,102674.25
2018-06-22T10:36:22.026Z,102665.34
2018-06-22T10:39:24.251Z,102668.37
2018-06-22T10:42:26.405Z,102674.91
2018-06-22T10:45:28.531Z,102671.73
2018-06-22T10:48:30.504Z,102666.15
2018-06-22T10:51:32.631Z,102657.43
2018-06-22T10:54:35.718Z,102660.01
2018-06-22T10:57:37.734Z,102664.74
2018-06-22T11:00:39.816Z,102658.01
2018-06-22T11:03:41.892Z,102654.30
2018-06-22T11:06:43.953Z,102667.11
2018-06-22T11:09:46.015Z,102655.23
2018-06-22T11:12:48.176Z,102651.82
2018-06-22T11:15:50.164Z,102659.75
2018-06-22T11:18:52.251Z,102661.31
2018-06-22T11:21:54.404Z,102668.34
2018-06-22T11:24:56.510Z,102671.36
2018-06-22T11:27:58.723Z,102654.92
2018-06-22T11:31:00.754Z,102662.47
2018-06-22T11:34:05.277Z,102667.77
2018-06-22T11:37:07.267Z,102656.13
2018-06-22T11:40:09.241Z,102666.85
2018-06-22T11:43:11.344Z,102654.06
2018-06-22T11:46:13.391Z,102654.12
2018-06-22T11:49:15.455Z,102661.06
2018-06-22T11:52:17.639Z,102654.26
2018-06-22T11:55:19.691Z,102652.07
2018-06-22T11:58:21.641Z,102649.56
2018-06-22T12:01:23.726Z,102650.73
2018-06-22T12:04:25.850Z,102660.29
2018-06-22T12:07:27.936Z,102653.57
2018-06-22T12:10:30.049Z,102638.92
2018-06-22T12:13:32.136Z,102644.84
2018-06-22T12:16:34.384Z,102644.76
2018-06-22T12:19:36.695Z,102651.16
2018-06-22T12:22:38.827Z,102652.20
2018-06-22T12:25:40.929Z,102651.25
2018-06-22T12:28:42.952Z,102653.19
2018-06-22T12:31:45.215Z,102649.98
2018-06-22T12:34:47.179Z,102649.05
2018-06-22T12:37:50.408Z,102654.27
2018-06-22T12:40:53.484Z,102653.37
2018-06-22T12:43:55.585Z,102650.68
2018-06-22T12:46:57.793Z,102649.75
2018-06-22T12:49:59.954Z,102647.95
2018-06-22T12:53:02.140Z,102641.76
2018-06-22T12:56:04.483Z,102649.61
2018-06-22T12:59:15.678Z,102657.41
2018-06-22T13:02:18.032Z,102644.00
2018-06-22T13:05:20.060Z,102647.40
2018-06-22T13:08:22.126Z,102640.68
2018-06-22T13:11:24.208Z,102643.46
2018-06-22T13:14:26.207Z,102640.11
2018-06-22T13:17:28.232Z,102644.39
2018-06-22T13:20:30.327Z,102643.90
2018-06-22T13:23:32.372Z,102644.50
2018-06-22T13:26:34.456Z,102646.64
2018-06-22T13:29:37.751Z,102641.86
2018-06-22T13:32:39.852Z,102646.74
2018-06-22T13:35:41.890Z,102636.48
2018-06-22T13:38:44.072Z,102637.61
2018-06-22T13:41:46.799Z,102634.86
2018-06-22T13:44:48.838Z,102638.21
2018-06-22T13:47:51.098Z,102638.42
2018-06-22T13:50:53.227Z,102633.77
2018-06-22T13:53:55.249Z,102627.16
2018-06-22T13:56:57.584Z,102629.48
2018-06-22T13:59:59.576Z,102627.44
2018-06-22T14:03:02.488Z,102651.52
2018-06-22T14:06:10.487Z,102658.18
2018-06-22T14:09:14.545Z,102661.99
2018-06-22T14:12:16.568Z,102654.99
2018-06-22T14:15:18.855Z,102652.92
2018-06-22T14:18:21.948Z,102650.30
2018-06-22T14:21:24.034Z,102654.09
2018-06-22T14:24:27.093Z,102649.97
2018-06-22T14:27:29.200Z,102652.50
2018-06-22T14:30:31.166Z,102660.20
2018-06-22T14:33:33.433Z,102659.25
2018-06-22T14:36:35.405Z,102655.39
2018-06-22T14:39:37.774Z,102648.85
2018-06-22T14:42:39.804Z,102650.87
2018-06-22T14:45:41.966Z,102657.36
2018-06-22T14:48:44.035Z,102664.11
2018-06-22T14:51:46.149Z,102662.06
2018-06-22T14:54:58.319Z,102657.57
2018-06-22T14:58:06.160Z,102652.82
2018-06-22T15:02:16.798Z,102661.48
2018-06-22T15:05:24.621Z,102659.55
2018-06-22T15:08:26.658Z,102663.22
2018-06-22T15:11:28.733Z,102659.66
2018-06-22T15:14:30.816Z,102664.30
2018-06-22T15:18:05.022Z,102655.91
2018-06-22T15:21:08.221Z,102657.13
2018-06-22T15:24:10.285Z,102651.93
2018-06-22T15:27:12.243Z,102654.70
2018-06-22T15:30:14.330Z,102659.30
2018-06-22T15:33:22.119Z,102657.83
2018-06-22T15:36:30.102Z,102654.37
2018-06-22T15:39:37.813Z,102659.61
2018-06-22T15:42:45.502Z,102655.38
2018-06-22T15:45:53.392Z,102663.61
2018-06-22T15:49:01.055Z,102660.13
2018-06-22T15:52:08.827Z,102663.31
2018-06-22T15:55:16.622Z,102665.49
2018-06-22T15:58:18.600Z,102671.04
2018-06-22T16:01:20.705Z,102664.79
2018-06-22T16:04:22.721Z,102669.86
2018-06-22T16:07:24.815Z,102670.37
2018-06-22T16:10:26.909Z,102669.12
2018-06-22T16:13:28.991Z,102668.90
2018-06-22T16:16:36.753Z,102668.34
2018-06-22T16:19:44.436Z,102670.55
2018-06-22T16:23:56.570Z,102669.17
2018-06-22T16:27:04.167Z,102670.39
2018-06-22T16:30:07.672Z,102664.83
2018-06-22T16:33:09.738Z,102673.18
2018-06-22T16:36:11.807Z,102676.14
2018-06-22T16:39:14.335Z,102672.73
2018-06-22T16:42:16.359Z,102673.35
2018-06-22T16:45:18.679Z,102676.16
2018-06-22T16:48:20.775Z,102671.41
2018-06-22T16:51:23.259Z,102674.80
2018-06-22T16:54:25.376Z,102666.61
2018-06-22T16:57:27.907Z,102661.63
2018-06-22T17:00:29.983Z,102659.86
2018-06-22T17:03:32.064Z,102661.93
2018-06-22T17:06:39.972Z,102661.90
2018-06-22T17:09:48.002Z,102666.44
2018-06-22T17:13:58.619Z,102666.03
2018-06-22T17:17:06.377Z,102672.64
2018-06-22T17:20:09.163Z,102684.65
2018-06-22T17:23:11.232Z,102689.08
2018-06-22T17:26:13.439Z,102690.14
2018-06-22T17:29:15.590Z,102692.62
2018-06-22T17:32:17.739Z,102692.03
2018-06-22T17:35:20.803Z,102690.34
2018-06-22T17:38:22.911Z,102694.14
2018-06-22T17:41:24.955Z,102692.01
2018-06-22T17:44:27.110Z,102689.62
2018-06-22T17:47:29.203Z,102684.61
2018-06-22T17:50:31.522Z,102683.80
2018-06-22T17:53:33.533Z,102684.93
2018-06-22T17:56:35.668Z,102686.85
2018-06-22T17:59:43.471Z,102687.86
2018-06-22T18:02:51.439Z,102688.07
2018-06-22T18:05:59.375Z,102686.74
2018-06-22T18:09:01.516Z,102691.90
2018-06-22T18:12:09.988Z,102691.25
2018-06-22T18:15:12.089Z,102688.69
2018-06-22T18:18:14.125Z,102687.75
2018-06-22T18:21:16.217Z,102687.04
2018-06-22T18:24:18.314Z,102697.14
2018-06-22T18:27:20.335Z,102698.01
2018-06-22T18:30:22.540Z,102698.84
2018-06-22T18:33:24.628Z,102698.78
2018-06-22T18:36:26.704Z,102697.13
2018-06-22T18:39:28.865Z,102698.70
2018-06-22T18:42:30.972Z,102699.34
2018-06-22T18:45:33.083Z,102702.72
2018-06-22T18:48:35.145Z,102708.69
2018-06-22T18:51:37.349Z,102708.94
2018-06-22T18:54:45.212Z,102710.55
2018-06-22T18:57:53.516Z,102709.69
2018-06-22T19:01:01.372Z,102709.72
2018-06-22T19:04:03.617Z,102712.41
2018-06-22T19:07:05.810Z,102711.79
2018-06-22T19:10:07.858Z,102718.79
2018-06-22T19:13:10.710Z,102722.42
2018-06-22T19:16:12.880Z,102724.67
2018-06-22T19:19:14.981Z,102726.19
2018-06-22T19:22:17.028Z,102728.04
2018-06-22T19:25:20.167Z,102732.48
2018-06-22T19:28:22.212Z,102729.39
2018-06-22T19:31:24.760Z,102737.98
2018-06-22T19:34:32.720Z,102737.14
2018-06-22T19:37:34.789Z,102739.88
2018-06-22T19:40:36.935Z,102742.53
2018-06-22T19:43:44.555Z,102743.39
2018-06-22T19:46:52.572Z,102744.92
2018-06-22T19:50:00.235Z,102745.14
2018-06-22T19:53:08.024Z,102746.96
2018-06-22T19:56:11.247Z,102752.51
2018-06-22T19:59:13.331Z,102750.64
2018-06-22T20:02:15.458Z,102752.33
2018-06-22T20:05:17.527Z,102749.95
2018-06-22T20:08:19.612Z,102754.87
2018-06-22T20:11:21.679Z,102765.66
2018-06-22T20:14:24.218Z,102767.38
2018-06-22T20:17:26.500Z,102767.31
2018-06-22T20:20:28.588Z,102780.33
2018-06-22T20:23:30.658Z,102779.54
2018-06-22T20:26:32.868Z,102782.17
2018-06-22T20:29:34.985Z,102782.53
2018-06-22T20:32:37.104Z,102788.97
2018-06-22T20:35:45.984Z,102797.06
2018-06-22T20:38:53.926Z,102798.96
2018-06-22T20:42:01.716Z,102800.13
2018-06-22T20:45:10.874Z,102805.21
2018-06-22T20:48:18.810Z,102806.63
2018-06-22T20:51:20.844Z,102813.97
2018-06-22T20:54:23.284Z,102813.79
2018-06-22T20:57:26.543Z,102816.78
2018-06-22T21:00:28.623Z,102815.00
2018-06-22T21:03:30.742Z,102817.50
2018-06-22T21:06:32.944Z,102813.01
2018-06-22T21:09:34.965Z,102815.09
2018-06-22T21:12:40.407Z,102820.70
2018-06-22T21:15:39.225Z,102818.36
2018-06-22T21:18:41.291Z,102820.56
2018-06-22T21:21:49.230Z,102818.79
2018-06-22T21:24:51.326Z,102831.30
2018-06-22T21:27:59.422Z,102834.50
2018-06-22T21:31:08.918Z,102836.91
2018-06-22T21:34:18.763Z,102840.98
2018-06-22T21:37:26.678Z,102845.57
2018-06-22T21:40:28.736Z,102846.39
2018-06-22T21:43:30.794Z,102853.42
2018-06-22T21:46:32.861Z,102850.34
2018-06-22T21:49:34.934Z,102850.90
2018-06-22T21:52:37.003Z,102849.06
2018-06-22T21:55:39.097Z,102853.65
2018-06-22T21:58:41.024Z,102848.14
2018-06-22T22:01:43.170Z,102846.43
2018-06-22T22:04:45.301Z,102844.67
2018-06-22T22:07:47.529Z,102842.93
2018-06-22T22:10:55.415Z,102843.15
2018-06-22T22:13:57.678Z,102839.59
2018-06-22T22:16:59.795Z,102842.69
2018-06-22T22:20:01.870Z,102852.63
2018-06-22T22:23:04.206Z,102851.74
2018-06-22T22:26:06.326Z,102853.60
2018-06-22T22:29:09.039Z,102847.40
2018-06-22T22:32:11.003Z,102851.40
2018-06-22T22:35:13.061Z,102853.64
2018-06-22T22:38:15.234Z,102855.61
2018-06-22T22:41:17.317Z,102860.01
2018-06-22T22:44:19.456Z,102850.83
2018-06-22T22:47:21.626Z,102853.05
2018-06-22T22:50:23.680Z,102851.18
2018-06-22T22:53:26.568Z,102850.47
2018-06-22T22:56:28.655Z,102854.84
2018-06-22T22:59:30.700Z,102854.56
2018-06-22T23:02:32.804Z,102856.32
2018-06-22T23:05:34.940Z,102855.24
2018-06-22T23:08:37.021Z,102847.88
2018-06-22T23:11:39.107Z,102852.40
2018-06-22T23:14:41.159Z,102846.84
2018-06-22T23:17:43.244Z,102849.32
2018-06-22T23:20:45.415Z,102851.97
2018-06-22T23:23:47.456Z,102854.75
2018-06-22T23:26:49.545Z,102853.86
2018-06-22T23:29:51.586Z,102851.23
2018-06-22T23:32:53.626Z,102856.48
2018-06-22T23:35:56.388Z,102853.36
2018-06-22T23:38:58.411Z,102849.10
2018-06-22T23:42:00.407Z,102851.14
2018-06-22T23:45:02.447Z,102849.85
2018-06-22T23:48:04.544Z,102848.69
2018-06-22T23:51:06.587Z,102848.71
2018-06-22T23:54:08.655Z,102848.88
2018-06-22T23:57:10.788Z,102844.26
